sensor_id;sensor_type;location;lat;lon;timestamp;temperature;humidity
41944;DHT22;27636;52.610;13.244;2023-03-05T00:00:18;3.40;99.90
41944;DHT22;27636;52.610;13.244;2023-03-05T00:05:22;3.20;99.90
41944;DHT22;27636;52.610;13.244;2023-03-05T00:10:27;3.10;99.90
41944;DHT22;27636;52.610;13.244;2023-03-05T00:15:30;3.00;99.90
41944;DHT22;27636;52.610;13.244;2023-03-05T00:20:33;3.00;99.90
41944;DHT22;27636;52.610;13.244;2023-03-05T00:25:39;2.90;99.90
41944;DHT22;27636;52.610;13.244;2023-03-05T00:30:43;2.80;99.90
41944;DHT22;27636;52.610;13.244;2023-03-05T00:35:46;2.90;99.90
41944;DHT22;27636;52.610;13.244;2023-03-05T00:40:51;2.80;99.90
41944;DHT22;27636;52.610;13.244;2023-03-05T00:45:55;2.80;99.90
41944;DHT22;27636;52.610;13.244;2023-03-05T00:50:58;2.90;99.90
41944;DHT22;27636;52.610;13.244;2023-03-05T00:56:04;2.80;99.90
41944;DHT22;27636;52.610;13.244;2023-03-05T01:01:08;2.80;99.90
41944;DHT22;27636;52.610;13.244;2023-03-05T01:06:12;2.80;99.90
41944;DHT22;27636;52.610;13.244;2023-03-05T01:11:18;2.70;99.90
41944;DHT22;27636;52.610;13.244;2023-03-05T01:16:22;2.70;99.90
41944;DHT22;27636;52.610;13.244;2023-03-05T01:21:25;2.70;99.90
41944;DHT22;27636;52.610;13.244;2023-03-05T01:26:30;2.60;99.90
41944;DHT22;27636;52.610;13.244;2023-03-05T01:31:34;2.50;99.90
41944;DHT22;27636;52.610;13.244;2023-03-05T01:36:37;2.50;99.90
41944;DHT22;27636;52.610;13.244;2023-03-05T01:41:44;2.50;99.90
41944;DHT22;27636;52.610;13.244;2023-03-05T01:46:48;2.40;99.90
41944;DHT22;27636;52.610;13.244;2023-03-05T01:51:59;2.20;99.90
41944;DHT22;27636;52.610;13.244;2023-03-05T01:57:07;2.20;99.90
41944;DHT22;27636;52.610;13.244;2023-03-05T02:02:13;2.10;99.90
41944;DHT22;27636;52.610;13.244;2023-03-05T02:07:17;1.90;99.90
41944;DHT22;27636;52.610;13.244;2023-03-05T02:12:22;1.90;99.90
41944;DHT22;27636;52.610;13.244;2023-03-05T02:17:26;1.90;99.90
41944;DHT22;27636;52.610;13.244;2023-03-05T02:22:32;1.90;99.90
41944;DHT22;27636;52.610;13.244;2023-03-05T02:27:35;1.90;99.90
41944;DHT22;27636;52.610;13.244;2023-03-05T02:32:39;1.80;99.90
41944;DHT22;27636;52.610;13.244;2023-03-05T02:37:44;1.90;99.90
41944;DHT22;27636;52.610;13.244;2023-03-05T02:42:47;1.90;99.90
41944;DHT22;27636;52.610;13.244;2023-03-05T02:47:51;2.00;99.90
41944;DHT22;27636;52.610;13.244;2023-03-05T02:52:56;2.00;99.90
41944;DHT22;27636;52.610;13.244;2023-03-05T02:58:00;1.90;99.90
41944;DHT22;27636;52.610;13.244;2023-03-05T03:03:05;1.90;99.90
41944;DHT22;27636;52.610;13.244;2023-03-05T03:08:09;2.20;99.90
41944;DHT22;27636;52.610;13.244;2023-03-05T03:13:13;2.10;99.90
41944;DHT22;27636;52.610;13.244;2023-03-05T03:18:16;2.10;99.90
41944;DHT22;27636;52.610;13.244;2023-03-05T03:23:21;2.10;99.90
41944;DHT22;27636;52.610;13.244;2023-03-05T03:28:25;2.00;99.90
41944;DHT22;27636;52.610;13.244;2023-03-05T03:33:29;2.00;99.90
41944;DHT22;27636;52.610;13.244;2023-03-05T03:38:34;1.90;99.90
41944;DHT22;27636;52.610;13.244;2023-03-05T03:43:37;1.90;99.90
41944;DHT22;27636;52.610;13.244;2023-03-05T03:48:41;1.80;99.90
41944;DHT22;27636;52.610;13.244;2023-03-05T03:53:46;1.70;99.90
41944;DHT22;27636;52.610;13.244;2023-03-05T03:58:49;1.60;99.90
41944;DHT22;27636;52.610;13.244;2023-03-05T04:03:54;1.60;99.90
41944;DHT22;27636;52.610;13.244;2023-03-05T04:08:59;1.40;99.90
41944;DHT22;27636;52.610;13.244;2023-03-05T04:14:02;1.40;99.90
41944;DHT22;27636;52.610;13.244;2023-03-05T04:19:06;1.30;99.90
41944;DHT22;27636;52.610;13.244;2023-03-05T04:24:10;1.20;99.90
41944;DHT22;27636;52.610;13.244;2023-03-05T04:29:14;1.10;99.90
41944;DHT22;27636;52.610;13.244;2023-03-05T04:34:17;1.10;99.90
41944;DHT22;27636;52.610;13.244;2023-03-05T04:39:22;1.00;99.90
41944;DHT22;27636;52.610;13.244;2023-03-05T04:44:25;1.00;99.90
41944;DHT22;27636;52.610;13.244;2023-03-05T04:49:28;0.90;99.90
41944;DHT22;27636;52.610;13.244;2023-03-05T04:54:34;0.80;99.90
41944;DHT22;27636;52.610;13.244;2023-03-05T04:59:37;1.00;99.90
41944;DHT22;27636;52.610;13.244;2023-03-05T05:04:41;1.00;99.90
41944;DHT22;27636;52.610;13.244;2023-03-05T05:09:48;1.00;99.90
41944;DHT22;27636;52.610;13.244;2023-03-05T05:14:51;0.90;99.90
41944;DHT22;27636;52.610;13.244;2023-03-05T05:19:55;0.80;99.90
41944;DHT22;27636;52.610;13.244;2023-03-05T05:25:00;0.70;99.90
41944;DHT22;27636;52.610;13.244;2023-03-05T05:30:04;0.70;99.90
41944;DHT22;27636;52.610;13.244;2023-03-05T05:35:09;0.70;99.90
41944;DHT22;27636;52.610;13.244;2023-03-05T05:40:14;0.50;99.90
41944;DHT22;27636;52.610;13.244;2023-03-05T05:45:17;0.40;99.90
41944;DHT22;27636;52.610;13.244;2023-03-05T05:50:21;0.40;99.90
41944;DHT22;27636;52.610;13.244;2023-03-05T05:55:27;0.50;99.90
41944;DHT22;27636;52.610;13.244;2023-03-05T06:00:30;0.70;99.90
41944;DHT22;27636;52.610;13.244;2023-03-05T06:05:33;0.70;99.90
41944;DHT22;27636;52.610;13.244;2023-03-05T06:10:38;0.70;99.90
41944;DHT22;27636;52.610;13.244;2023-03-05T06:15:41;1.00;99.90
41944;DHT22;27636;52.610;13.244;2023-03-05T06:20:45;1.20;99.90
41944;DHT22;27636;52.610;13.244;2023-03-05T06:25:59;1.40;99.90
41944;DHT22;27636;52.610;13.244;2023-03-05T06:31:05;1.80;99.90
41944;DHT22;27636;52.610;13.244;2023-03-05T06:36:10;2.00;99.90
41944;DHT22;27636;52.610;13.244;2023-03-05T06:41:18;2.60;99.90
41944;DHT22;27636;52.610;13.244;2023-03-05T06:46:23;2.90;99.90
41944;DHT22;27636;52.610;13.244;2023-03-05T06:51:28;2.80;99.90
41944;DHT22;27636;52.610;13.244;2023-03-05T06:56:35;2.70;99.90
41944;DHT22;27636;52.610;13.244;2023-03-05T07:01:39;2.70;99.90
41944;DHT22;27636;52.610;13.244;2023-03-05T07:06:42;2.90;99.90
41944;DHT22;27636;52.610;13.244;2023-03-05T07:11:47;3.10;99.90
41944;DHT22;27636;52.610;13.244;2023-03-05T07:16:52;3.10;99.90
41944;DHT22;27636;52.610;13.244;2023-03-05T07:21:55;3.00;99.90
41944;DHT22;27636;52.610;13.244;2023-03-05T07:27:00;2.90;99.90
41944;DHT22;27636;52.610;13.244;2023-03-05T07:32:04;2.90;99.90
41944;DHT22;27636;52.610;13.244;2023-03-05T07:37:08;3.00;99.90
41944;DHT22;27636;52.610;13.244;2023-03-05T07:42:12;3.00;99.90
41944;DHT22;27636;52.610;13.244;2023-03-05T07:47:27;3.30;99.90
41944;DHT22;27636;52.610;13.244;2023-03-05T07:52:30;3.50;99.90
41944;DHT22;27636;52.610;13.244;2023-03-05T07:57:35;3.60;99.90
41944;DHT22;27636;52.610;13.244;2023-03-05T08:02:40;3.80;99.90
41944;DHT22;27636;52.610;13.244;2023-03-05T08:07:43;3.90;99.90
41944;DHT22;27636;52.610;13.244;2023-03-05T08:12:48;3.70;99.90
41944;DHT22;27636;52.610;13.244;2023-03-05T08:17:51;3.90;99.90
41944;DHT22;27636;52.610;13.244;2023-03-05T08:22:55;4.10;99.90
41944;DHT22;27636;52.610;13.244;2023-03-05T08:28:01;4.80;99.90
41944;DHT22;27636;52.610;13.244;2023-03-05T08:33:05;6.20;99.90
41944;DHT22;27636;52.610;13.244;2023-03-05T08:38:09;7.90;96.30
41944;DHT22;27636;52.610;13.244;2023-03-05T08:43:16;6.70;94.10
41944;DHT22;27636;52.610;13.244;2023-03-05T08:48:19;6.00;95.70
41944;DHT22;27636;52.610;13.244;2023-03-05T08:53:23;5.60;96.80
41944;DHT22;27636;52.610;13.244;2023-03-05T08:58:27;5.50;96.10
41944;DHT22;27636;52.610;13.244;2023-03-05T09:03:31;7.10;94.10
41944;DHT22;27636;52.610;13.244;2023-03-05T09:08:35;7.50;91.60
41944;DHT22;27636;52.610;13.244;2023-03-05T09:13:40;8.20;91.00
41944;DHT22;27636;52.610;13.244;2023-03-05T09:18:44;7.80;89.30
41944;DHT22;27636;52.610;13.244;2023-03-05T09:23:48;6.50;91.40
41944;DHT22;27636;52.610;13.244;2023-03-05T09:28:52;5.90;93.90
41944;DHT22;27636;52.610;13.244;2023-03-05T09:33:56;5.70;95.20
41944;DHT22;27636;52.610;13.244;2023-03-05T09:38:59;5.20;95.80
41944;DHT22;27636;52.610;13.244;2023-03-05T09:44:14;4.90;95.80
41944;DHT22;27636;52.610;13.244;2023-03-05T09:49:29;5.70;95.40
41944;DHT22;27636;52.610;13.244;2023-03-05T09:54:37;6.50;93.30
41944;DHT22;27636;52.610;13.244;2023-03-05T09:59:46;7.00;92.10
41944;DHT22;27636;52.610;13.244;2023-03-05T10:04:54;5.90;92.40
41944;DHT22;27636;52.610;13.244;2023-03-05T10:10:02;5.30;92.40
41944;DHT22;27636;52.610;13.244;2023-03-05T10:15:11;5.10;92.80
41944;DHT22;27636;52.610;13.244;2023-03-05T10:20:26;5.20;93.20
41944;DHT22;27636;52.610;13.244;2023-03-05T10:25:51;5.30;92.30
41944;DHT22;27636;52.610;13.244;2023-03-05T10:31:11;5.40;92.80
41944;DHT22;27636;52.610;13.244;2023-03-05T10:36:33;5.20;93.70
41944;DHT22;27636;52.610;13.244;2023-03-05T10:41:51;4.80;96.10
41944;DHT22;27636;52.610;13.244;2023-03-05T10:46:59;5.10;96.70
41944;DHT22;27636;52.610;13.244;2023-03-05T10:52:06;5.50;95.90
41944;DHT22;27636;52.610;13.244;2023-03-05T10:57:17;5.70;94.80
41944;DHT22;27636;52.610;13.244;2023-03-05T11:02:23;6.10;93.90
41944;DHT22;27636;52.610;13.244;2023-03-05T11:07:36;6.00;94.20
41944;DHT22;27636;52.610;13.244;2023-03-05T11:12:43;5.80;94.10
41944;DHT22;27636;52.610;13.244;2023-03-05T11:18:14;5.90;94.80
41944;DHT22;27636;52.610;13.244;2023-03-05T11:23:20;5.70;96.30
41944;DHT22;27636;52.610;13.244;2023-03-05T11:28:29;5.40;97.10
41944;DHT22;27636;52.610;13.244;2023-03-05T11:33:37;5.60;99.90
41944;DHT22;27636;52.610;13.244;2023-03-05T11:38:46;5.70;99.90
41944;DHT22;27636;52.610;13.244;2023-03-05T11:43:52;6.20;95.90
41944;DHT22;27636;52.610;13.244;2023-03-05T11:48:58;6.10;96.70
41944;DHT22;27636;52.610;13.244;2023-03-05T11:54:06;6.40;93.70
41944;DHT22;27636;52.610;13.244;2023-03-05T11:59:15;6.30;94.90
41944;DHT22;27636;52.610;13.244;2023-03-05T12:04:21;7.10;93.90
41944;DHT22;27636;52.610;13.244;2023-03-05T12:09:30;7.70;91.50
41944;DHT22;27636;52.610;13.244;2023-03-05T12:14:41;6.80;91.80
41944;DHT22;27636;52.610;13.244;2023-03-05T12:19:51;6.40;91.20
41944;DHT22;27636;52.610;13.244;2023-03-05T12:25:23;6.20;92.50
41944;DHT22;27636;52.610;13.244;2023-03-05T12:30:57;6.80;91.60
41944;DHT22;27636;52.610;13.244;2023-03-05T12:36:37;7.30;91.30
41944;DHT22;27636;52.610;13.244;2023-03-05T12:41:42;7.10;91.20
41944;DHT22;27636;52.610;13.244;2023-03-05T12:52:30;7.30;91.60
41944;DHT22;27636;52.610;13.244;2023-03-05T12:57:34;7.60;86.50
41944;DHT22;27636;52.610;13.244;2023-03-05T13:02:42;7.30;82.10
41944;DHT22;27636;52.610;13.244;2023-03-05T13:07:48;6.70;84.10
41944;DHT22;27636;52.610;13.244;2023-03-05T13:12:53;6.40;85.80
41944;DHT22;27636;52.610;13.244;2023-03-05T13:17:58;6.90;85.20
41944;DHT22;27636;52.610;13.244;2023-03-05T13:23:13;7.00;86.70
41944;DHT22;27636;52.610;13.244;2023-03-05T13:28:18;6.90;84.00
41944;DHT22;27636;52.610;13.244;2023-03-05T13:33:25;6.20;86.50
41944;DHT22;27636;52.610;13.244;2023-03-05T13:38:33;6.00;88.90
41944;DHT22;27636;52.610;13.244;2023-03-05T13:43:42;5.60;90.70
41944;DHT22;27636;52.610;13.244;2023-03-05T13:48:46;5.50;91.40
41944;DHT22;27636;52.610;13.244;2023-03-05T13:53:51;5.40;87.90
41944;DHT22;27636;52.610;13.244;2023-03-05T13:58:56;5.60;86.90
41944;DHT22;27636;52.610;13.244;2023-03-05T14:04:05;5.60;86.30
41944;DHT22;27636;52.610;13.244;2023-03-05T14:09:19;5.90;85.80
41944;DHT22;27636;52.610;13.244;2023-03-05T14:14:24;5.80;83.50
41944;DHT22;27636;52.610;13.244;2023-03-05T14:19:33;6.00;85.70
41944;DHT22;27636;52.610;13.244;2023-03-05T14:24:38;5.80;89.90
41944;DHT22;27636;52.610;13.244;2023-03-05T14:29:44;5.40;90.70
41944;DHT22;27636;52.610;13.244;2023-03-05T14:34:51;5.20;91.40
41944;DHT22;27636;52.610;13.244;2023-03-05T14:39:57;5.10;92.00
41944;DHT22;27636;52.610;13.244;2023-03-05T14:45:11;5.10;92.40
41944;DHT22;27636;52.610;13.244;2023-03-05T14:50:18;4.90;93.70
41944;DHT22;27636;52.610;13.244;2023-03-05T14:55:25;4.70;93.90
41944;DHT22;27636;52.610;13.244;2023-03-05T15:00:30;4.60;94.40
41944;DHT22;27636;52.610;13.244;2023-03-05T15:05:33;4.60;94.90
41944;DHT22;27636;52.610;13.244;2023-03-05T15:10:39;4.70;95.30
41944;DHT22;27636;52.610;13.244;2023-03-05T15:15:44;4.60;96.20
41944;DHT22;27636;52.610;13.244;2023-03-05T15:20:48;4.50;97.00
41944;DHT22;27636;52.610;13.244;2023-03-05T15:25:55;4.40;98.10
41944;DHT22;27636;52.610;13.244;2023-03-05T15:30:58;4.40;97.70
41944;DHT22;27636;52.610;13.244;2023-03-05T15:36:03;4.30;98.00
41944;DHT22;27636;52.610;13.244;2023-03-05T15:41:07;4.30;98.30
41944;DHT22;27636;52.610;13.244;2023-03-05T15:46:11;4.30;98.70
41944;DHT22;27636;52.610;13.244;2023-03-05T15:51:15;4.30;99.90
41944;DHT22;27636;52.610;13.244;2023-03-05T15:56:20;4.30;99.70
41944;DHT22;27636;52.610;13.244;2023-03-05T16:01:23;4.00;99.90
41944;DHT22;27636;52.610;13.244;2023-03-05T16:06:27;3.80;99.90
41944;DHT22;27636;52.610;13.244;2023-03-05T16:11:35;3.60;99.90
41944;DHT22;27636;52.610;13.244;2023-03-05T16:16:39;3.50;99.90
41944;DHT22;27636;52.610;13.244;2023-03-05T16:21:43;3.50;99.90
41944;DHT22;27636;52.610;13.244;2023-03-05T16:26:48;3.40;99.90
41944;DHT22;27636;52.610;13.244;2023-03-05T16:31:51;3.30;99.90
41944;DHT22;27636;52.610;13.244;2023-03-05T16:36:55;3.40;99.90
41944;DHT22;27636;52.610;13.244;2023-03-05T16:42:00;3.10;99.90
41944;DHT22;27636;52.610;13.244;2023-03-05T16:47:03;3.20;99.90
41944;DHT22;27636;52.610;13.244;2023-03-05T16:52:07;3.20;99.90
41944;DHT22;27636;52.610;13.244;2023-03-05T16:57:22;3.10;99.90
41944;DHT22;27636;52.610;13.244;2023-03-05T17:02:27;3.00;99.90
41944;DHT22;27636;52.610;13.244;2023-03-05T17:07:31;3.00;99.90
41944;DHT22;27636;52.610;13.244;2023-03-05T17:12:35;3.00;99.90
41944;DHT22;27636;52.610;13.244;2023-03-05T17:17:39;2.90;99.90
41944;DHT22;27636;52.610;13.244;2023-03-05T17:22:43;2.90;99.90
41944;DHT22;27636;52.610;13.244;2023-03-05T17:27:47;2.90;99.90
41944;DHT22;27636;52.610;13.244;2023-03-05T17:32:51;2.70;99.90
41944;DHT22;27636;52.610;13.244;2023-03-05T17:37:56;2.60;99.90
41944;DHT22;27636;52.610;13.244;2023-03-05T17:43:01;2.70;99.90
41944;DHT22;27636;52.610;13.244;2023-03-05T17:48:05;2.40;99.90
41944;DHT22;27636;52.610;13.244;2023-03-05T17:53:08;2.40;99.90
41944;DHT22;27636;52.610;13.244;2023-03-05T17:58:13;2.10;99.90
41944;DHT22;27636;52.610;13.244;2023-03-05T18:03:17;2.00;99.90
41944;DHT22;27636;52.610;13.244;2023-03-05T18:08:20;1.90;99.90
41944;DHT22;27636;52.610;13.244;2023-03-05T18:13:25;1.90;99.90
41944;DHT22;27636;52.610;13.244;2023-03-05T18:18:29;1.90;99.90
41944;DHT22;27636;52.610;13.244;2023-03-05T18:23:32;2.00;99.90
41944;DHT22;27636;52.610;13.244;2023-03-05T18:28:37;2.00;99.90
41944;DHT22;27636;52.610;13.244;2023-03-05T18:33:41;1.80;99.90
41944;DHT22;27636;52.610;13.244;2023-03-05T18:38:45;1.50;99.90
41944;DHT22;27636;52.610;13.244;2023-03-05T18:43:49;1.60;99.90
41944;DHT22;27636;52.610;13.244;2023-03-05T18:48:53;1.40;99.90
41944;DHT22;27636;52.610;13.244;2023-03-05T18:53:56;1.40;99.90
41944;DHT22;27636;52.610;13.244;2023-03-05T18:59:01;1.30;99.90
41944;DHT22;27636;52.610;13.244;2023-03-05T19:04:05;1.20;99.90
41944;DHT22;27636;52.610;13.244;2023-03-05T19:09:08;1.20;99.90
41944;DHT22;27636;52.610;13.244;2023-03-05T19:14:22;1.30;99.90
41944;DHT22;27636;52.610;13.244;2023-03-05T19:19:26;1.20;99.90
41944;DHT22;27636;52.610;13.244;2023-03-05T19:24:30;1.50;99.90
41944;DHT22;27636;52.610;13.244;2023-03-05T19:29:35;1.30;99.90
41944;DHT22;27636;52.610;13.244;2023-03-05T19:34:39;1.30;99.90
41944;DHT22;27636;52.610;13.244;2023-03-05T19:39:43;1.30;99.90
41944;DHT22;27636;52.610;13.244;2023-03-05T19:44:48;1.30;99.90
41944;DHT22;27636;52.610;13.244;2023-03-05T19:49:51;1.40;99.90
41944;DHT22;27636;52.610;13.244;2023-03-05T19:54:55;1.50;99.90
41944;DHT22;27636;52.610;13.244;2023-03-05T20:00:00;1.50;99.90
41944;DHT22;27636;52.610;13.244;2023-03-05T20:05:04;1.40;99.90
41944;DHT22;27636;52.610;13.244;2023-03-05T20:10:09;1.50;99.90
41944;DHT22;27636;52.610;13.244;2023-03-05T20:15:14;1.40;99.90
41944;DHT22;27636;52.610;13.244;2023-03-05T20:20:18;1.40;99.90
41944;DHT22;27636;52.610;13.244;2023-03-05T20:25:22;1.40;99.90
41944;DHT22;27636;52.610;13.244;2023-03-05T20:30:28;1.30;99.90
41944;DHT22;27636;52.610;13.244;2023-03-05T20:35:31;1.30;99.90
41944;DHT22;27636;52.610;13.244;2023-03-05T20:40:35;1.30;99.90
41944;DHT22;27636;52.610;13.244;2023-03-05T20:45:40;1.40;99.90
41944;DHT22;27636;52.610;13.244;2023-03-05T20:50:43;1.30;99.90
41944;DHT22;27636;52.610;13.244;2023-03-05T20:55:48;1.40;99.90
41944;DHT22;27636;52.610;13.244;2023-03-05T21:00:53;1.50;99.90
41944;DHT22;27636;52.610;13.244;2023-03-05T21:05:56;1.60;99.90
41944;DHT22;27636;52.610;13.244;2023-03-05T21:11:04;1.50;99.90
41944;DHT22;27636;52.610;13.244;2023-03-05T21:16:13;1.60;99.90
41944;DHT22;27636;52.610;13.244;2023-03-05T21:21:18;1.70;99.90
41944;DHT22;27636;52.610;13.244;2023-03-05T21:26:21;1.60;99.90
41944;DHT22;27636;52.610;13.244;2023-03-05T21:31:26;1.80;99.90
41944;DHT22;27636;52.610;13.244;2023-03-05T21:36:29;1.70;99.90
41944;DHT22;27636;52.610;13.244;2023-03-05T21:41:33;1.70;99.90
41944;DHT22;27636;52.610;13.244;2023-03-05T21:46:38;1.60;99.90
41944;DHT22;27636;52.610;13.244;2023-03-05T21:51:42;1.60;99.90
41944;DHT22;27636;52.610;13.244;2023-03-05T21:57:01;1.50;99.90
41944;DHT22;27636;52.610;13.244;2023-03-05T22:02:07;1.50;99.90
41944;DHT22;27636;52.610;13.244;2023-03-05T22:07:13;1.60;99.90
41944;DHT22;27636;52.610;13.244;2023-03-05T22:12:16;1.40;99.90
41944;DHT22;27636;52.610;13.244;2023-03-05T22:17:26;1.50;99.90
41944;DHT22;27636;52.610;13.244;2023-03-05T22:22:30;1.50;99.90
41944;DHT22;27636;52.610;13.244;2023-03-05T22:27:34;1.40;99.90
41944;DHT22;27636;52.610;13.244;2023-03-05T22:32:39;1.40;99.90
41944;DHT22;27636;52.610;13.244;2023-03-05T22:37:42;1.30;99.90
41944;DHT22;27636;52.610;13.244;2023-03-05T22:42:46;1.20;99.90
41944;DHT22;27636;52.610;13.244;2023-03-05T22:47:51;1.20;99.90
41944;DHT22;27636;52.610;13.244;2023-03-05T22:52:54;1.10;99.90
41944;DHT22;27636;52.610;13.244;2023-03-05T22:57:58;1.10;99.90
41944;DHT22;27636;52.610;13.244;2023-03-05T23:03:03;1.10;99.90
41944;DHT22;27636;52.610;13.244;2023-03-05T23:08:09;1.20;99.90
41944;DHT22;27636;52.610;13.244;2023-03-05T23:13:12;1.20;99.90
41944;DHT22;27636;52.610;13.244;2023-03-05T23:18:18;1.20;99.90
41944;DHT22;27636;52.610;13.244;2023-03-05T23:23:22;1.20;99.90
41944;DHT22;27636;52.610;13.244;2023-03-05T23:28:24;1.20;99.90
41944;DHT22;27636;52.610;13.244;2023-03-05T23:33:29;1.10;99.90
41944;DHT22;27636;52.610;13.244;2023-03-05T23:38:32;1.10;99.90
41944;DHT22;27636;52.610;13.244;2023-03-05T23:43:37;1.10;99.90
41944;DHT22;27636;52.610;13.244;2023-03-05T23:48:41;1.10;99.90
41944;DHT22;27636;52.610;13.244;2023-03-05T23:53:45;1.00;99.90
41944;DHT22;27636;52.610;13.244;2023-03-05T23:58:50;0.90;99.90
